sensor_id;sensor_type;location;lat;lon;timestamp;P1;durP1;ratioP1;P2;durP2;ratioP2
19347;SDS011;9810;52.480;9.806;2023-05-07T00:00:27;18.90;;;12.83;;
19347;SDS011;9810;52.480;9.806;2023-05-07T00:02:56;19.13;;;13.27;;
19347;SDS011;9810;52.480;9.806;2023-05-07T00:05:24;17.73;;;12.40;;
19347;SDS011;9810;52.480;9.806;2023-05-07T00:07:51;19.30;;;12.53;;
19347;SDS011;9810;52.480;9.806;2023-05-07T00:10:19;20.50;;;12.93;;
19347;SDS011;9810;52.480;9.806;2023-05-07T00:12:46;22.50;;;13.67;;
19347;SDS011;9810;52.480;9.806;2023-05-07T00:15:13;20.53;;;14.20;;
19347;SDS011;9810;52.480;9.806;2023-05-07T00:17:41;20.63;;;13.17;;
19347;SDS011;9810;52.480;9.806;2023-05-07T00:20:10;22.60;;;14.20;;
19347;SDS011;9810;52.480;9.806;2023-05-07T00:22:38;21.20;;;13.83;;
19347;SDS011;9810;52.480;9.806;2023-05-07T00:25:06;21.40;;;14.00;;
19347;SDS011;9810;52.480;9.806;2023-05-07T00:27:33;19.13;;;13.23;;
19347;SDS011;9810;52.480;9.806;2023-05-07T00:30:01;19.53;;;13.50;;
19347;SDS011;9810;52.480;9.806;2023-05-07T00:32:28;16.83;;;12.43;;
19347;SDS011;9810;52.480;9.806;2023-05-07T00:34:55;19.60;;;13.17;;
19347;SDS011;9810;52.480;9.806;2023-05-07T00:37:24;22.40;;;14.43;;
19347;SDS011;9810;52.480;9.806;2023-05-07T00:39:52;18.37;;;11.60;;
19347;SDS011;9810;52.480;9.806;2023-05-07T00:42:19;20.60;;;14.00;;
19347;SDS011;9810;52.480;9.806;2023-05-07T00:44:46;19.30;;;13.13;;
19347;SDS011;9810;52.480;9.806;2023-05-07T00:47:13;20.60;;;12.90;;
19347;SDS011;9810;52.480;9.806;2023-05-07T00:49:42;20.70;;;13.33;;
19347;SDS011;9810;52.480;9.806;2023-05-07T00:52:11;21.00;;;13.90;;
19347;SDS011;9810;52.480;9.806;2023-05-07T00:54:42;20.23;;;13.80;;
19347;SDS011;9810;52.480;9.806;2023-05-07T00:57:09;17.40;;;12.73;;
19347;SDS011;9810;52.480;9.806;2023-05-07T00:59:37;21.17;;;14.43;;
19347;SDS011;9810;52.480;9.806;2023-05-07T01:02:05;22.80;;;14.73;;
19347;SDS011;9810;52.480;9.806;2023-05-07T01:04:33;24.07;;;15.17;;
19347;SDS011;9810;52.480;9.806;2023-05-07T01:07:00;20.00;;;13.47;;
19347;SDS011;9810;52.480;9.806;2023-05-07T01:09:28;20.30;;;14.67;;
19347;SDS011;9810;52.480;9.806;2023-05-07T01:11:58;25.03;;;15.23;;
19347;SDS011;9810;52.480;9.806;2023-05-07T01:14:26;26.07;;;14.87;;
19347;SDS011;9810;52.480;9.806;2023-05-07T01:16:54;22.67;;;13.93;;
19347;SDS011;9810;52.480;9.806;2023-05-07T01:19:22;21.30;;;14.90;;
19347;SDS011;9810;52.480;9.806;2023-05-07T01:21:49;22.90;;;14.87;;
19347;SDS011;9810;52.480;9.806;2023-05-07T01:24:22;23.90;;;14.67;;
19347;SDS011;9810;52.480;9.806;2023-05-07T01:26:50;23.43;;;14.70;;
19347;SDS011;9810;52.480;9.806;2023-05-07T01:29:17;21.43;;;13.30;;
19347;SDS011;9810;52.480;9.806;2023-05-07T01:31:44;23.20;;;15.27;;
19347;SDS011;9810;52.480;9.806;2023-05-07T01:34:12;18.20;;;12.57;;
19347;SDS011;9810;52.480;9.806;2023-05-07T01:36:41;20.90;;;13.70;;
19347;SDS011;9810;52.480;9.806;2023-05-07T01:39:10;19.87;;;12.37;;
19347;SDS011;9810;52.480;9.806;2023-05-07T01:41:40;21.40;;;12.60;;
19347;SDS011;9810;52.480;9.806;2023-05-07T01:44:09;21.13;;;13.33;;
19347;SDS011;9810;52.480;9.806;2023-05-07T01:46:39;21.80;;;14.67;;
19347;SDS011;9810;52.480;9.806;2023-05-07T01:49:06;24.87;;;14.77;;
19347;SDS011;9810;52.480;9.806;2023-05-07T01:51:34;23.70;;;14.50;;
19347;SDS011;9810;52.480;9.806;2023-05-07T01:54:01;25.97;;;14.50;;
19347;SDS011;9810;52.480;9.806;2023-05-07T01:56:29;26.50;;;15.40;;
19347;SDS011;9810;52.480;9.806;2023-05-07T01:58:58;25.10;;;15.90;;
19347;SDS011;9810;52.480;9.806;2023-05-07T02:01:25;25.80;;;15.00;;
19347;SDS011;9810;52.480;9.806;2023-05-07T02:03:52;29.13;;;16.97;;
19347;SDS011;9810;52.480;9.806;2023-05-07T02:06:20;28.10;;;17.37;;
19347;SDS011;9810;52.480;9.806;2023-05-07T02:08:47;25.60;;;16.67;;
19347;SDS011;9810;52.480;9.806;2023-05-07T02:11:14;27.77;;;16.47;;
19347;SDS011;9810;52.480;9.806;2023-05-07T02:13:42;27.17;;;17.23;;
19347;SDS011;9810;52.480;9.806;2023-05-07T02:16:11;27.63;;;16.77;;
19347;SDS011;9810;52.480;9.806;2023-05-07T02:18:39;30.53;;;17.13;;
19347;SDS011;9810;52.480;9.806;2023-05-07T02:21:06;26.90;;;15.93;;
19347;SDS011;9810;52.480;9.806;2023-05-07T02:23:34;27.77;;;16.23;;
19347;SDS011;9810;52.480;9.806;2023-05-07T02:26:01;24.27;;;15.13;;
19347;SDS011;9810;52.480;9.806;2023-05-07T02:28:28;25.13;;;15.57;;
19347;SDS011;9810;52.480;9.806;2023-05-07T02:30:55;23.10;;;14.67;;
19347;SDS011;9810;52.480;9.806;2023-05-07T02:33:26;24.80;;;15.23;;
19347;SDS011;9810;52.480;9.806;2023-05-07T02:35:53;22.43;;;14.13;;
19347;SDS011;9810;52.480;9.806;2023-05-07T02:38:21;20.30;;;12.90;;
19347;SDS011;9810;52.480;9.806;2023-05-07T02:40:49;19.13;;;12.80;;
19347;SDS011;9810;52.480;9.806;2023-05-07T02:43:16;20.97;;;13.50;;
19347;SDS011;9810;52.480;9.806;2023-05-07T02:45:43;19.00;;;12.30;;
19347;SDS011;9810;52.480;9.806;2023-05-07T02:48:10;19.67;;;11.63;;
19347;SDS011;9810;52.480;9.806;2023-05-07T02:50:39;17.87;;;11.27;;
19347;SDS011;9810;52.480;9.806;2023-05-07T02:53:07;18.03;;;11.83;;
19347;SDS011;9810;52.480;9.806;2023-05-07T02:55:34;19.60;;;12.53;;
19347;SDS011;9810;52.480;9.806;2023-05-07T02:58:01;22.20;;;11.47;;
19347;SDS011;9810;52.480;9.806;2023-05-07T03:00:28;19.53;;;11.17;;
19347;SDS011;9810;52.480;9.806;2023-05-07T03:02:55;17.60;;;10.80;;
19347;SDS011;9810;52.480;9.806;2023-05-07T03:05:22;17.43;;;10.90;;
19347;SDS011;9810;52.480;9.806;2023-05-07T03:07:51;16.67;;;10.90;;
19347;SDS011;9810;52.480;9.806;2023-05-07T03:10:19;15.53;;;11.00;;
19347;SDS011;9810;52.480;9.806;2023-05-07T03:12:46;12.60;;;8.40;;
19347;SDS011;9810;52.480;9.806;2023-05-07T03:15:13;15.27;;;9.43;;
19347;SDS011;9810;52.480;9.806;2023-05-07T03:17:40;15.50;;;10.30;;
19347;SDS011;9810;52.480;9.806;2023-05-07T03:20:08;12.80;;;8.20;;
19347;SDS011;9810;52.480;9.806;2023-05-07T03:22:36;14.37;;;8.63;;
19347;SDS011;9810;52.480;9.806;2023-05-07T03:25:06;14.17;;;9.40;;
19347;SDS011;9810;52.480;9.806;2023-05-07T03:27:34;15.43;;;9.67;;
19347;SDS011;9810;52.480;9.806;2023-05-07T03:30:02;14.77;;;10.00;;
19347;SDS011;9810;52.480;9.806;2023-05-07T03:32:31;12.57;;;9.40;;
19347;SDS011;9810;52.480;9.806;2023-05-07T03:34:58;12.23;;;8.33;;
19347;SDS011;9810;52.480;9.806;2023-05-07T03:37:26;13.40;;;9.13;;
19347;SDS011;9810;52.480;9.806;2023-05-07T03:39:53;12.27;;;8.57;;
19347;SDS011;9810;52.480;9.806;2023-05-07T03:42:22;13.20;;;9.03;;
19347;SDS011;9810;52.480;9.806;2023-05-07T03:44:49;13.83;;;8.20;;
19347;SDS011;9810;52.480;9.806;2023-05-07T03:47:16;12.10;;;8.63;;
19347;SDS011;9810;52.480;9.806;2023-05-07T03:49:44;10.20;;;7.80;;
19347;SDS011;9810;52.480;9.806;2023-05-07T03:52:11;13.50;;;8.27;;
19347;SDS011;9810;52.480;9.806;2023-05-07T03:54:38;13.63;;;8.90;;
19347;SDS011;9810;52.480;9.806;2023-05-07T03:57:06;13.57;;;9.00;;
19347;SDS011;9810;52.480;9.806;2023-05-07T03:59:35;12.23;;;8.87;;
19347;SDS011;9810;52.480;9.806;2023-05-07T04:02:02;14.60;;;8.33;;
19347;SDS011;9810;52.480;9.806;2023-05-07T04:04:29;12.97;;;9.10;;
19347;SDS011;9810;52.480;9.806;2023-05-07T04:06:57;11.50;;;8.47;;
19347;SDS011;9810;52.480;9.806;2023-05-07T04:09:25;12.47;;;8.10;;
19347;SDS011;9810;52.480;9.806;2023-05-07T04:11:53;13.50;;;9.27;;
19347;SDS011;9810;52.480;9.806;2023-05-07T04:14:20;13.00;;;8.63;;
19347;SDS011;9810;52.480;9.806;2023-05-07T04:16:49;13.53;;;8.67;;
19347;SDS011;9810;52.480;9.806;2023-05-07T04:19:17;11.77;;;7.90;;
19347;SDS011;9810;52.480;9.806;2023-05-07T04:21:44;12.87;;;8.07;;
19347;SDS011;9810;52.480;9.806;2023-05-07T04:24:11;14.83;;;9.03;;
19347;SDS011;9810;52.480;9.806;2023-05-07T04:26:39;13.63;;;7.87;;
19347;SDS011;9810;52.480;9.806;2023-05-07T04:29:17;12.43;;;9.07;;
19347;SDS011;9810;52.480;9.806;2023-05-07T04:31:59;11.37;;;8.17;;
19347;SDS011;9810;52.480;9.806;2023-05-07T04:34:34;13.97;;;8.87;;
19347;SDS011;9810;52.480;9.806;2023-05-07T04:37:21;13.43;;;9.00;;
19347;SDS011;9810;52.480;9.806;2023-05-07T04:40:02;12.60;;;8.53;;
19347;SDS011;9810;52.480;9.806;2023-05-07T04:42:37;12.63;;;8.93;;
19347;SDS011;9810;52.480;9.806;2023-05-07T04:45:17;11.60;;;6.97;;
19347;SDS011;9810;52.480;9.806;2023-05-07T04:48:06;14.03;;;7.90;;
19347;SDS011;9810;52.480;9.806;2023-05-07T04:51:02;13.33;;;8.07;;
19347;SDS011;9810;52.480;9.806;2023-05-07T04:53:35;10.97;;;7.87;;
19347;SDS011;9810;52.480;9.806;2023-05-07T04:56:08;12.37;;;7.80;;
19347;SDS011;9810;52.480;9.806;2023-05-07T04:58:52;11.00;;;6.87;;
19347;SDS011;9810;52.480;9.806;2023-05-07T05:01:22;14.30;;;8.63;;
19347;SDS011;9810;52.480;9.806;2023-05-07T05:04:04;11.47;;;7.27;;
19347;SDS011;9810;52.480;9.806;2023-05-07T05:06:42;11.17;;;7.80;;
19347;SDS011;9810;52.480;9.806;2023-05-07T05:09:35;12.60;;;8.57;;
19347;SDS011;9810;52.480;9.806;2023-05-07T05:12:04;10.20;;;8.07;;
19347;SDS011;9810;52.480;9.806;2023-05-07T05:14:35;10.97;;;7.83;;
19347;SDS011;9810;52.480;9.806;2023-05-07T05:17:06;12.37;;;8.10;;
19347;SDS011;9810;52.480;9.806;2023-05-07T05:19:52;14.03;;;9.87;;
19347;SDS011;9810;52.480;9.806;2023-05-07T05:22:25;13.23;;;8.50;;
19347;SDS011;9810;52.480;9.806;2023-05-07T05:24:55;12.43;;;9.03;;
19347;SDS011;9810;52.480;9.806;2023-05-07T05:27:29;12.57;;;8.43;;
19347;SDS011;9810;52.480;9.806;2023-05-07T05:29:58;13.27;;;8.83;;
19347;SDS011;9810;52.480;9.806;2023-05-07T05:32:43;11.80;;;8.57;;
19347;SDS011;9810;52.480;9.806;2023-05-07T05:35:16;11.23;;;8.73;;
19347;SDS011;9810;52.480;9.806;2023-05-07T05:37:47;10.37;;;7.70;;
19347;SDS011;9810;52.480;9.806;2023-05-07T05:40:31;11.53;;;8.00;;
19347;SDS011;9810;52.480;9.806;2023-05-07T05:43:03;12.43;;;8.23;;
19347;SDS011;9810;52.480;9.806;2023-05-07T05:45:35;12.43;;;9.10;;
19347;SDS011;9810;52.480;9.806;2023-05-07T05:48:24;10.13;;;7.73;;
19347;SDS011;9810;52.480;9.806;2023-05-07T05:51:03;8.63;;;7.03;;
19347;SDS011;9810;52.480;9.806;2023-05-07T05:53:40;9.20;;;7.30;;
19347;SDS011;9810;52.480;9.806;2023-05-07T05:56:18;12.00;;;7.90;;
19347;SDS011;9810;52.480;9.806;2023-05-07T05:58:47;9.43;;;7.43;;
19347;SDS011;9810;52.480;9.806;2023-05-07T06:01:23;9.43;;;7.37;;
19347;SDS011;9810;52.480;9.806;2023-05-07T06:03:52;8.07;;;6.43;;
19347;SDS011;9810;52.480;9.806;2023-05-07T06:06:31;10.40;;;7.10;;
19347;SDS011;9810;52.480;9.806;2023-05-07T06:09:12;10.70;;;7.60;;
19347;SDS011;9810;52.480;9.806;2023-05-07T06:11:54;8.87;;;7.33;;
19347;SDS011;9810;52.480;9.806;2023-05-07T06:14:32;9.30;;;6.77;;
19347;SDS011;9810;52.480;9.806;2023-05-07T06:17:09;9.40;;;6.63;;
19347;SDS011;9810;52.480;9.806;2023-05-07T06:19:40;8.23;;;6.00;;
19347;SDS011;9810;52.480;9.806;2023-05-07T06:22:14;7.70;;;6.57;;
19347;SDS011;9810;52.480;9.806;2023-05-07T06:24:46;9.03;;;6.17;;
19347;SDS011;9810;52.480;9.806;2023-05-07T06:27:20;8.73;;;6.47;;
19347;SDS011;9810;52.480;9.806;2023-05-07T06:30:01;10.33;;;7.23;;
19347;SDS011;9810;52.480;9.806;2023-05-07T06:32:30;7.40;;;5.87;;
19347;SDS011;9810;52.480;9.806;2023-05-07T06:35:02;8.37;;;6.27;;
19347;SDS011;9810;52.480;9.806;2023-05-07T06:37:33;10.27;;;5.97;;
19347;SDS011;9810;52.480;9.806;2023-05-07T06:40:05;9.30;;;6.13;;
19347;SDS011;9810;52.480;9.806;2023-05-07T06:42:43;8.33;;;6.70;;
19347;SDS011;9810;52.480;9.806;2023-05-07T06:45:25;8.87;;;6.43;;
19347;SDS011;9810;52.480;9.806;2023-05-07T06:48:07;10.60;;;7.23;;
19347;SDS011;9810;52.480;9.806;2023-05-07T06:50:59;7.37;;;5.37;;
19347;SDS011;9810;52.480;9.806;2023-05-07T06:53:45;7.70;;;5.90;;
19347;SDS011;9810;52.480;9.806;2023-05-07T06:56:21;8.13;;;6.83;;
19347;SDS011;9810;52.480;9.806;2023-05-07T06:59:06;7.33;;;6.33;;
19347;SDS011;9810;52.480;9.806;2023-05-07T07:01:37;8.77;;;6.97;;
19347;SDS011;9810;52.480;9.806;2023-05-07T07:04:19;7.83;;;6.27;;
19347;SDS011;9810;52.480;9.806;2023-05-07T07:07:03;9.77;;;6.67;;
19347;SDS011;9810;52.480;9.806;2023-05-07T07:09:42;10.13;;;6.23;;
19347;SDS011;9810;52.480;9.806;2023-05-07T07:12:26;7.53;;;6.73;;
19347;SDS011;9810;52.480;9.806;2023-05-07T07:15:18;8.93;;;7.33;;
19347;SDS011;9810;52.480;9.806;2023-05-07T07:18:01;9.77;;;5.93;;
19347;SDS011;9810;52.480;9.806;2023-05-07T07:20:47;8.93;;;6.73;;
19347;SDS011;9810;52.480;9.806;2023-05-07T07:23:23;10.63;;;7.70;;
19347;SDS011;9810;52.480;9.806;2023-05-07T07:26:09;9.00;;;7.10;;
19347;SDS011;9810;52.480;9.806;2023-05-07T07:28:42;8.90;;;7.17;;
19347;SDS011;9810;52.480;9.806;2023-05-07T07:31:14;10.93;;;7.50;;
19347;SDS011;9810;52.480;9.806;2023-05-07T07:33:50;11.23;;;7.57;;
19347;SDS011;9810;52.480;9.806;2023-05-07T07:36:37;9.97;;;7.00;;
19347;SDS011;9810;52.480;9.806;2023-05-07T07:39:16;9.73;;;7.67;;
19347;SDS011;9810;52.480;9.806;2023-05-07T07:41:49;10.70;;;8.10;;
19347;SDS011;9810;52.480;9.806;2023-05-07T07:44:18;11.70;;;8.13;;
19347;SDS011;9810;52.480;9.806;2023-05-07T07:46:51;10.77;;;8.37;;
19347;SDS011;9810;52.480;9.806;2023-05-07T07:49:32;9.47;;;8.47;;
19347;SDS011;9810;52.480;9.806;2023-05-07T07:52:03;9.50;;;7.73;;
19347;SDS011;9810;52.480;9.806;2023-05-07T07:54:37;12.70;;;8.73;;
19347;SDS011;9810;52.480;9.806;2023-05-07T07:57:20;12.03;;;9.83;;
19347;SDS011;9810;52.480;9.806;2023-05-07T07:59:51;11.43;;;8.83;;
19347;SDS011;9810;52.480;9.806;2023-05-07T08:02:21;11.00;;;8.37;;
19347;SDS011;9810;52.480;9.806;2023-05-07T08:04:53;9.67;;;8.07;;
19347;SDS011;9810;52.480;9.806;2023-05-07T08:07:41;10.43;;;8.50;;
19347;SDS011;9810;52.480;9.806;2023-05-07T08:10:21;10.47;;;8.07;;
19347;SDS011;9810;52.480;9.806;2023-05-07T08:12:54;8.93;;;7.67;;
19347;SDS011;9810;52.480;9.806;2023-05-07T08:15:26;9.30;;;7.83;;
19347;SDS011;9810;52.480;9.806;2023-05-07T08:17:56;13.00;;;8.50;;
19347;SDS011;9810;52.480;9.806;2023-05-07T08:20:33;9.87;;;7.60;;
19347;SDS011;9810;52.480;9.806;2023-05-07T08:23:08;9.07;;;7.07;;
19347;SDS011;9810;52.480;9.806;2023-05-07T08:25:37;8.73;;;6.80;;
19347;SDS011;9810;52.480;9.806;2023-05-07T08:28:13;8.20;;;6.60;;
19347;SDS011;9810;52.480;9.806;2023-05-07T08:30:44;8.03;;;6.53;;
19347;SDS011;9810;52.480;9.806;2023-05-07T08:33:13;8.07;;;6.53;;
19347;SDS011;9810;52.480;9.806;2023-05-07T08:35:59;8.37;;;7.00;;
19347;SDS011;9810;52.480;9.806;2023-05-07T08:39:09;7.90;;;6.50;;
19347;SDS011;9810;52.480;9.806;2023-05-07T08:41:36;8.27;;;6.07;;
19347;SDS011;9810;52.480;9.806;2023-05-07T08:44:11;7.73;;;6.67;;
19347;SDS011;9810;52.480;9.806;2023-05-07T08:46:41;8.10;;;6.67;;
19347;SDS011;9810;52.480;9.806;2023-05-07T08:49:22;8.27;;;6.10;;
19347;SDS011;9810;52.480;9.806;2023-05-07T08:52:06;7.70;;;5.63;;
19347;SDS011;9810;52.480;9.806;2023-05-07T08:54:39;9.07;;;7.27;;
19347;SDS011;9810;52.480;9.806;2023-05-07T08:57:10;8.63;;;6.40;;
19347;SDS011;9810;52.480;9.806;2023-05-07T08:59:50;8.50;;;5.43;;
19347;SDS011;9810;52.480;9.806;2023-05-07T09:02:32;9.60;;;6.03;;
19347;SDS011;9810;52.480;9.806;2023-05-07T09:05:01;8.07;;;6.53;;
19347;SDS011;9810;52.480;9.806;2023-05-07T09:07:45;12.60;;;6.60;;
19347;SDS011;9810;52.480;9.806;2023-05-07T09:10:21;8.13;;;5.93;;
19347;SDS011;9810;52.480;9.806;2023-05-07T09:12:59;8.53;;;6.43;;
19347;SDS011;9810;52.480;9.806;2023-05-07T09:15:54;8.63;;;6.13;;
19347;SDS011;9810;52.480;9.806;2023-05-07T09:18:47;7.43;;;6.30;;
19347;SDS011;9810;52.480;9.806;2023-05-07T09:21:18;8.20;;;6.40;;
19347;SDS011;9810;52.480;9.806;2023-05-07T09:23:53;7.23;;;5.40;;
19347;SDS011;9810;52.480;9.806;2023-05-07T09:26:29;7.83;;;6.50;;
19347;SDS011;9810;52.480;9.806;2023-05-07T09:28:59;7.30;;;6.30;;
19347;SDS011;9810;52.480;9.806;2023-05-07T09:31:42;6.30;;;5.43;;
19347;SDS011;9810;52.480;9.806;2023-05-07T09:34:14;7.55;;;6.40;;
19347;SDS011;9810;52.480;9.806;2023-05-07T09:36:53;6.07;;;5.30;;
19347;SDS011;9810;52.480;9.806;2023-05-07T09:39:45;6.97;;;5.70;;
19347;SDS011;9810;52.480;9.806;2023-05-07T09:42:30;8.67;;;4.83;;
19347;SDS011;9810;52.480;9.806;2023-05-07T09:45:10;8.17;;;5.87;;
19347;SDS011;9810;52.480;9.806;2023-05-07T09:47:53;6.73;;;5.50;;
19347;SDS011;9810;52.480;9.806;2023-05-07T09:50:32;6.60;;;5.40;;
19347;SDS011;9810;52.480;9.806;2023-05-07T09:53:17;6.93;;;4.57;;
19347;SDS011;9810;52.480;9.806;2023-05-07T09:55:49;8.90;;;6.10;;
19347;SDS011;9810;52.480;9.806;2023-05-07T09:58:23;7.37;;;5.50;;
19347;SDS011;9810;52.480;9.806;2023-05-07T10:01:01;9.73;;;6.10;;
19347;SDS011;9810;52.480;9.806;2023-05-07T10:03:38;6.93;;;5.20;;
19347;SDS011;9810;52.480;9.806;2023-05-07T10:06:15;7.00;;;5.63;;
19347;SDS011;9810;52.480;9.806;2023-05-07T10:08:46;9.23;;;5.63;;
19347;SDS011;9810;52.480;9.806;2023-05-07T10:11:19;9.57;;;6.73;;
19347;SDS011;9810;52.480;9.806;2023-05-07T10:13:48;8.80;;;6.97;;
19347;SDS011;9810;52.480;9.806;2023-05-07T10:16:20;9.53;;;7.07;;
19347;SDS011;9810;52.480;9.806;2023-05-07T10:18:57;8.63;;;7.37;;
19347;SDS011;9810;52.480;9.806;2023-05-07T10:21:30;7.93;;;7.13;;
19347;SDS011;9810;52.480;9.806;2023-05-07T10:24:04;7.80;;;6.80;;
19347;SDS011;9810;52.480;9.806;2023-05-07T10:26:39;8.60;;;7.60;;
19347;SDS011;9810;52.480;9.806;2023-05-07T10:29:14;9.83;;;7.40;;
19347;SDS011;9810;52.480;9.806;2023-05-07T10:31:54;9.80;;;6.83;;
19347;SDS011;9810;52.480;9.806;2023-05-07T10:34:37;8.90;;;7.03;;
19347;SDS011;9810;52.480;9.806;2023-05-07T10:37:14;10.47;;;8.03;;
19347;SDS011;9810;52.480;9.806;2023-05-07T10:39:49;7.93;;;7.13;;
19347;SDS011;9810;52.480;9.806;2023-05-07T10:42:23;10.83;;;7.77;;
19347;SDS011;9810;52.480;9.806;2023-05-07T10:44:56;8.93;;;7.23;;
19347;SDS011;9810;52.480;9.806;2023-05-07T10:56:55;7.93;;;6.57;;
19347;SDS011;9810;52.480;9.806;2023-05-07T10:59:35;12.07;;;7.37;;
19347;SDS011;9810;52.480;9.806;2023-05-07T11:02:09;12.40;;;7.83;;
19347;SDS011;9810;52.480;9.806;2023-05-07T11:04:43;10.27;;;7.87;;
19347;SDS011;9810;52.480;9.806;2023-05-07T11:10:07;8.00;;;6.77;;
19347;SDS011;9810;52.480;9.806;2023-05-07T11:12:54;8.90;;;6.30;;
19347;SDS011;9810;52.480;9.806;2023-05-07T11:15:33;8.13;;;6.47;;
19347;SDS011;9810;52.480;9.806;2023-05-07T11:18:07;8.57;;;5.93;;
19347;SDS011;9810;52.480;9.806;2023-05-07T11:20:50;8.50;;;6.10;;
19347;SDS011;9810;52.480;9.806;2023-05-07T11:26:44;7.23;;;6.13;;
19347;SDS011;9810;52.480;9.806;2023-05-07T11:29:17;6.77;;;5.40;;
19347;SDS011;9810;52.480;9.806;2023-05-07T11:31:50;7.47;;;5.23;;
19347;SDS011;9810;52.480;9.806;2023-05-07T11:34:24;8.93;;;5.53;;
19347;SDS011;9810;52.480;9.806;2023-05-07T11:36:56;6.90;;;5.60;;
19347;SDS011;9810;52.480;9.806;2023-05-07T11:39:40;9.70;;;5.83;;
19347;SDS011;9810;52.480;9.806;2023-05-07T11:42:27;6.37;;;5.20;;
19347;SDS011;9810;52.480;9.806;2023-05-07T11:45:03;5.77;;;5.07;;
19347;SDS011;9810;52.480;9.806;2023-05-07T11:47:42;4.47;;;3.97;;
19347;SDS011;9810;52.480;9.806;2023-05-07T11:50:59;7.17;;;5.17;;
19347;SDS011;9810;52.480;9.806;2023-05-07T11:53:20;6.30;;;4.63;;
19347;SDS011;9810;52.480;9.806;2023-05-07T11:56:14;6.97;;;4.90;;
19347;SDS011;9810;52.480;9.806;2023-05-07T11:59:03;4.43;;;4.03;;
19347;SDS011;9810;52.480;9.806;2023-05-07T12:01:47;6.13;;;5.43;;
19347;SDS011;9810;52.480;9.806;2023-05-07T12:04:39;5.33;;;4.90;;
19347;SDS011;9810;52.480;9.806;2023-05-07T12:07:38;7.37;;;4.87;;
19347;SDS011;9810;52.480;9.806;2023-05-07T12:10:13;5.47;;;4.97;;
19347;SDS011;9810;52.480;9.806;2023-05-07T12:12:46;6.30;;;4.93;;
19347;SDS011;9810;52.480;9.806;2023-05-07T12:15:17;5.83;;;4.53;;
19347;SDS011;9810;52.480;9.806;2023-05-07T12:17:50;6.13;;;5.20;;
19347;SDS011;9810;52.480;9.806;2023-05-07T12:20:23;10.33;;;5.57;;
19347;SDS011;9810;52.480;9.806;2023-05-07T12:22:55;5.20;;;4.47;;
19347;SDS011;9810;52.480;9.806;2023-05-07T12:25:26;5.30;;;4.57;;
19347;SDS011;9810;52.480;9.806;2023-05-07T12:28:35;6.73;;;4.83;;
19347;SDS011;9810;52.480;9.806;2023-05-07T12:31:17;7.47;;;4.37;;
19347;SDS011;9810;52.480;9.806;2023-05-07T12:34:03;5.87;;;3.80;;
19347;SDS011;9810;52.480;9.806;2023-05-07T12:36:43;5.00;;;4.50;;
19347;SDS011;9810;52.480;9.806;2023-05-07T12:39:35;4.50;;;3.43;;
19347;SDS011;9810;52.480;9.806;2023-05-07T12:42:20;3.97;;;3.60;;
19347;SDS011;9810;52.480;9.806;2023-05-07T12:45:13;5.03;;;3.50;;
19347;SDS011;9810;52.480;9.806;2023-05-07T12:47:46;7.23;;;4.33;;
19347;SDS011;9810;52.480;9.806;2023-05-07T12:50:21;4.30;;;3.90;;
19347;SDS011;9810;52.480;9.806;2023-05-07T12:53:05;4.13;;;3.33;;
19347;SDS011;9810;52.480;9.806;2023-05-07T12:56:15;4.57;;;3.67;;
19347;SDS011;9810;52.480;9.806;2023-05-07T12:59:03;3.80;;;3.30;;
19347;SDS011;9810;52.480;9.806;2023-05-07T13:01:41;4.33;;;3.17;;
19347;SDS011;9810;52.480;9.806;2023-05-07T13:04:13;4.87;;;3.77;;
19347;SDS011;9810;52.480;9.806;2023-05-07T13:06:49;3.63;;;3.30;;
19347;SDS011;9810;52.480;9.806;2023-05-07T13:09:25;4.43;;;3.63;;
19347;SDS011;9810;52.480;9.806;2023-05-07T13:11:58;6.40;;;4.23;;
19347;SDS011;9810;52.480;9.806;2023-05-07T13:14:44;6.70;;;4.60;;
19347;SDS011;9810;52.480;9.806;2023-05-07T13:17:17;5.07;;;4.63;;
19347;SDS011;9810;52.480;9.806;2023-05-07T13:19:52;5.77;;;3.83;;
19347;SDS011;9810;52.480;9.806;2023-05-07T13:22:31;5.40;;;4.70;;
19347;SDS011;9810;52.480;9.806;2023-05-07T13:25:09;4.47;;;4.07;;
19347;SDS011;9810;52.480;9.806;2023-05-07T13:27:47;5.27;;;4.67;;
19347;SDS011;9810;52.480;9.806;2023-05-07T13:30:21;5.70;;;4.60;;
19347;SDS011;9810;52.480;9.806;2023-05-07T13:32:59;7.27;;;5.57;;
19347;SDS011;9810;52.480;9.806;2023-05-07T13:35:37;6.37;;;5.43;;
19347;SDS011;9810;52.480;9.806;2023-05-07T13:38:13;8.00;;;5.47;;
19347;SDS011;9810;52.480;9.806;2023-05-07T13:40:53;4.73;;;4.33;;
19347;SDS011;9810;52.480;9.806;2023-05-07T13:43:26;8.40;;;5.23;;
19347;SDS011;9810;52.480;9.806;2023-05-07T13:46:02;8.30;;;4.93;;
19347;SDS011;9810;52.480;9.806;2023-05-07T13:48:53;9.87;;;5.63;;
19347;SDS011;9810;52.480;9.806;2023-05-07T13:51:40;8.17;;;5.30;;
19347;SDS011;9810;52.480;9.806;2023-05-07T13:54:12;7.07;;;5.03;;
19347;SDS011;9810;52.480;9.806;2023-05-07T13:56:42;6.87;;;5.17;;
19347;SDS011;9810;52.480;9.806;2023-05-07T13:59:11;6.00;;;5.17;;
19347;SDS011;9810;52.480;9.806;2023-05-07T14:01:52;5.30;;;4.37;;
19347;SDS011;9810;52.480;9.806;2023-05-07T14:04:30;7.90;;;4.97;;
19347;SDS011;9810;52.480;9.806;2023-05-07T14:07:01;6.20;;;4.67;;
19347;SDS011;9810;52.480;9.806;2023-05-07T14:09:43;6.70;;;5.93;;
19347;SDS011;9810;52.480;9.806;2023-05-07T14:12:21;7.53;;;5.00;;
19347;SDS011;9810;52.480;9.806;2023-05-07T14:14:56;6.27;;;4.97;;
19347;SDS011;9810;52.480;9.806;2023-05-07T14:17:31;5.07;;;4.50;;
19347;SDS011;9810;52.480;9.806;2023-05-07T14:20:03;5.83;;;3.83;;
19347;SDS011;9810;52.480;9.806;2023-05-07T14:22:36;4.70;;;4.23;;
19347;SDS011;9810;52.480;9.806;2023-05-07T14:25:06;4.53;;;3.77;;
19347;SDS011;9810;52.480;9.806;2023-05-07T14:27:38;4.83;;;4.33;;
19347;SDS011;9810;52.480;9.806;2023-05-07T14:30:25;5.10;;;4.40;;
19347;SDS011;9810;52.480;9.806;2023-05-07T14:32:56;7.57;;;4.13;;
19347;SDS011;9810;52.480;9.806;2023-05-07T14:35:33;4.23;;;3.83;;
19347;SDS011;9810;52.480;9.806;2023-05-07T14:38:04;5.03;;;4.07;;
19347;SDS011;9810;52.480;9.806;2023-05-07T14:40:36;4.53;;;4.13;;
19347;SDS011;9810;52.480;9.806;2023-05-07T14:43:07;4.80;;;3.40;;
19347;SDS011;9810;52.480;9.806;2023-05-07T14:45:39;4.43;;;3.83;;
19347;SDS011;9810;52.480;9.806;2023-05-07T14:48:11;5.30;;;4.13;;
19347;SDS011;9810;52.480;9.806;2023-05-07T14:50:56;6.70;;;3.77;;
19347;SDS011;9810;52.480;9.806;2023-05-07T14:53:33;6.33;;;4.53;;
19347;SDS011;9810;52.480;9.806;2023-05-07T14:56:10;3.73;;;3.43;;
19347;SDS011;9810;52.480;9.806;2023-05-07T14:58:39;6.93;;;4.00;;
19347;SDS011;9810;52.480;9.806;2023-05-07T15:01:15;4.60;;;4.03;;
19347;SDS011;9810;52.480;9.806;2023-05-07T15:03:55;4.67;;;3.77;;
19347;SDS011;9810;52.480;9.806;2023-05-07T15:06:39;6.00;;;3.90;;
19347;SDS011;9810;52.480;9.806;2023-05-07T15:09:07;5.83;;;3.93;;
19347;SDS011;9810;52.480;9.806;2023-05-07T15:11:45;4.43;;;3.47;;
19347;SDS011;9810;52.480;9.806;2023-05-07T15:14:13;5.10;;;3.72;;
19347;SDS011;9810;52.480;9.806;2023-05-07T15:16:46;5.37;;;3.90;;
19347;SDS011;9810;52.480;9.806;2023-05-07T15:19:23;4.13;;;3.67;;
19347;SDS011;9810;52.480;9.806;2023-05-07T15:21:58;4.00;;;3.40;;
19347;SDS011;9810;52.480;9.806;2023-05-07T15:24:31;4.63;;;3.70;;
19347;SDS011;9810;52.480;9.806;2023-05-07T15:27:05;6.87;;;3.33;;
19347;SDS011;9810;52.480;9.806;2023-05-07T15:29:43;4.07;;;3.37;;
19347;SDS011;9810;52.480;9.806;2023-05-07T15:32:19;4.97;;;3.27;;
19347;SDS011;9810;52.480;9.806;2023-05-07T15:34:52;5.90;;;3.20;;
19347;SDS011;9810;52.480;9.806;2023-05-07T15:37:23;5.17;;;3.87;;
19347;SDS011;9810;52.480;9.806;2023-05-07T15:39:58;4.00;;;3.60;;
19347;SDS011;9810;52.480;9.806;2023-05-07T15:42:32;5.23;;;4.07;;
19347;SDS011;9810;52.480;9.806;2023-05-07T15:45:01;5.60;;;3.80;;
19347;SDS011;9810;52.480;9.806;2023-05-07T15:47:35;4.03;;;3.67;;
19347;SDS011;9810;52.480;9.806;2023-05-07T15:50:18;4.33;;;3.93;;
19347;SDS011;9810;52.480;9.806;2023-05-07T15:52:54;4.73;;;3.67;;